Meath Environmental Platform

Observations for Trim Patrick St

Time AQI Temp °C Hum % Pres Pa CO μg/m³ H₂S μg/m³ NO μg/m³ NO₂ μg/m³ O₃ μg/m³ SO₂ μg/m³ PM1 μg/m³ PM2.5 μg/m³ PM10 μg/m³
Monday 3 August 2026
12:09 2 29.4 39 69,169 0 0 1.82 14.74 101.66 9.67 3.71 11.02 12.12
12:08 2 29.4 38 69,167 0 0 1.7 16.07 143.1 10.05 3.71 8.78 9.66
12:07 2 29.3 37 69,169 0 0 1.65 7.67 78.86 9.8 3.71 10.39 11.43
12:06 2 29.3 37 69,171 0 0 1.65 19.68 170.65 8.47 3.71 9.61 10.57
12:05 2 29.2 40 69,173 0 0 1.86 8.59 75.04 9.09 4.57 10.98 12.08
12:04 2 29.1 39 69,175 0 0 1.78 6.64 76.3 9.56 4.57 10.23 11.26
12:03 2 28.9 39 69,151 0 0 1.78 14.35 73.34 7.87 3.71 10.23 11.26
12:02 2 28.8 38 69,147 0 0 1.68 21.73 161.37 9.45 3.71 11.09 12.2
12:00 2 28.6 41 69,138 0 0 1.88 7.1 94.22 7.98 4.57 10.11 11.12
11:58 2 28.5 39 69,108 0 0 1.63 7.91 76.8 8.23 3.71 11.05 12.15
11:57 2 28.5 41 69,094 0 0 1.79 12.26 126.3 8.98 3.71 9.36 10.29
11:56 2 28.5 41 69,076 0 0 1.81 5.23 74.33 8.39 4.57 10.12 11.14
11:55 2 28.4 40 69,084 0 0 1.77 7.48 88.66 9.06 3.71 10.15 11.16
11:51 2 28.5 38 69,100 0 0 1.53 2.86 77.8 9.61 4.57 11.08 12.19
11:50 2 28.6 42 69,118 0 0 1.84 6.45 80.96 9.3 5.43 10.8 11.88
11:49 2 28.6 41 69,136 0 0 1.77 6.46 75.96 9.44 4.57 10.13 11.15
11:48 2 28.6 44 69,134 0 0 1.98 5.6 75.44 9.46 2.86 9.15 10.06
11:47 2 28.7 41 69,132 0 0 1.81 9.16 93.96 10.15 2.86 8.57 9.43
11:46 2 28.7 43 69,128 0 0 2 8.72 73.16 9.17 3.71 9.16 10.08
11:45 2 28.7 43 69,118 0 0 2.01 11.65 87.1 8.69 5.43 11.53 12.68